Aviation Digital Data Service (ADDS)

Output produced by TAFs form (0155 UTC 28 May 2015)
found at http://www.aviationweather.gov/adds/tafs/
 
KDEN 280134Z 12013G19KT 10SM -RA FEW060 BKN095 BKN220 19/06 A3001 RMK AO2 WSHFT 0119 RAB28 TSE23 P0000 T01940056
KDEN 272327Z 2800/2906 14009KT P6SM VCSH SCT080 BKN150 
     TEMPO 2800/2802 VRB15G30KT -TSRA BKN070CB 
     FM280200 17010KT P6SM SCT080 BKN150 
     FM280600 21008KT P6SM FEW100 SCT200 
     FM281500 VRB05KT P6SM SCT080 BKN150 
     FM282100 11008KT P6SM SCT050 BKN090 
     TEMPO 2821/2901 VRB15G30KT -TSRA BKN070CB 
     FM290300 06008KT P6SM SCT070 BKN120